Private Wetterstation Sandau
Wetterdaten: Sonntag, 20.05.2012
Datum Zeit Temp. A. Feuchte A. Luftdruck Regen Wind Richtung Richtung Taupunkt Windchill
20.05.2012 00:01 16,7 C 68 % 1012,4 hPa 0,0 l/m 4,7 km/h (1 Bft) O-NO 67 10,8 C 16,7 C
20.05.2012 00:06 16,6 C 68 % 1012,5 hPa 0,0 l/m 3,6 km/h (1 Bft) O-SO 112 10,7 C 16,6 C
20.05.2012 00:11 16,6 C 68 % 1012,4 hPa 0,0 l/m 8,6 km/h (2 Bft) O 90 10,7 C 16,6 C
20.05.2012 00:16 16,5 C 69 % 1012,4 hPa 0,0 l/m 3,2 km/h (1 Bft) O-NO 67 10,8 C 16,5 C
20.05.2012 00:21 16,4 C 69 % 1012,3 hPa 0,0 l/m 2,2 km/h (1 Bft) O-NO 67 10,7 C 16,4 C
20.05.2012 00:26 16,4 C 69 % 1012,4 hPa 0,0 l/m 3,2 km/h (1 Bft) O 90 10,7 C 16,4 C
20.05.2012 00:31 16,3 C 69 % 1012,4 hPa 0,0 l/m 2,9 km/h (1 Bft) O 90 10,6 C 16,3 C
20.05.2012 00:36 16,3 C 69 % 1012,2 hPa 0,0 l/m 6,1 km/h (2 Bft) O 90 10,6 C 16,3 C
20.05.2012 00:41 16,2 C 69 % 1012,2 hPa 0,0 l/m 3,2 km/h (1 Bft) O-SO 112 10,5 C 16,2 C
20.05.2012 00:46 16,1 C 69 % 1012,1 hPa 0,0 l/m 3,2 km/h (1 Bft) O-SO 112 10,4 C 16,1 C
20.05.2012 00:51 15,9 C 69 % 1012,1 hPa 0,0 l/m 4,0 km/h (1 Bft) O 90 10,2 C 15,9 C
20.05.2012 00:56 15,9 C 70 % 1012,1 hPa 0,0 l/m 3,6 km/h (1 Bft) O 90 10,4 C 15,9 C
20.05.2012 01:01 15,8 C 70 % 1012,1 hPa 0,0 l/m 6,8 km/h (2 Bft) O 90 10,3 C 15,8 C
20.05.2012 01:06 15,6 C 70 % 1012,0 hPa 0,0 l/m 5,0 km/h (1 Bft) O 90 10,1 C 15,6 C
20.05.2012 01:11 15,5 C 70 % 1012,1 hPa 0,0 l/m 4,0 km/h (1 Bft) O-NO 67 10,1 C 15,5 C
20.05.2012 01:16 15,4 C 70 % 1012,2 hPa 0,0 l/m 6,1 km/h (2 Bft) O-NO 67 10,0 C 15,4 C
20.05.2012 01:21 15,4 C 70 % 1012,1 hPa 0,0 l/m 1,8 km/h (1 Bft) O-SO 112 10,0 C 15,4 C
20.05.2012 01:26 15,4 C 70 % 1012,2 hPa 0,0 l/m 0,0 km/h (0 Bft) SO 135 10,0 C 15,4 C
20.05.2012 01:31 15,3 C 70 % 1012,3 hPa 0,0 l/m 0,0 km/h (0 Bft) O-SO 112 9,9 C 15,3 C
20.05.2012 01:36 15,3 C 70 % 1012,3 hPa 0,0 l/m 1,8 km/h (1 Bft) O-SO 112 9,9 C 15,3 C
20.05.2012 01:41 15,3 C 70 % 1012,3 hPa 0,0 l/m 0,0 km/h (0 Bft) O-SO 112 9,9 C 15,3 C
20.05.2012 01:46 15,2 C 70 % 1012,3 hPa 0,0 l/m 0,0 km/h (0 Bft) O 90 9,8 C 15,2 C
20.05.2012 01:51 15,1 C 70 % 1012,3 hPa 0,0 l/m 0,0 km/h (0 Bft) O 90 9,7 C 15,1 C
20.05.2012 01:56 14,9 C 70 % 1012,3 hPa 0,0 l/m 4,0 km/h (1 Bft) O-SO 112 9,5 C 14,9 C
20.05.2012 02:01 14,9 C 70 % 1012,2 hPa 0,0 l/m 0,0 km/h (0 Bft) O 90 9,5 C 14,9 C
20.05.2012 02:06 14,9 C 70 % 1012,2 hPa 0,0 l/m 2,2 km/h (1 Bft) O-NO 67 9,5 C 14,9 C
20.05.2012 02:11 14,9 C 71 % 1012,2 hPa 0,0 l/m 0,0 km/h (0 Bft) SO 135 9,7 C 14,9 C
20.05.2012 02:16 14,8 C 71 % 1012,3 hPa 0,0 l/m 1,4 km/h (1 Bft) O 90 9,6 C 14,8 C
20.05.2012 02:21 14,7 C 71 % 1012,2 hPa 0,0 l/m 2,2 km/h (1 Bft) O 90 9,5 C 14,7 C
20.05.2012 02:26 14,6 C 71 % 1012,2 hPa 0,0 l/m 1,8 km/h (1 Bft) O-NO 67 9,4 C 14,6 C
20.05.2012 02:31 14,5 C 71 % 1012,1 hPa 0,0 l/m 0,0 km/h (0 Bft) O 90 9,3 C 14,5 C
20.05.2012 02:36 14,4 C 71 % 1012,1 hPa 0,0 l/m 1,4 km/h (1 Bft) O 90 9,2 C 14,4 C
20.05.2012 02:41 14,4 C 71 % 1012,1 hPa 0,0 l/m 1,8 km/h (1 Bft) O-SO 112 9,2 C 14,4 C
20.05.2012 02:46 14,4 C 71 % 1012,1 hPa 0,0 l/m 2,5 km/h (1 Bft) O 90 9,2 C 14,4 C
20.05.2012 02:51 14,3 C 71 % 1012,1 hPa 0,0 l/m 2,9 km/h (1 Bft) O-NO 67 9,1 C 14,3 C
20.05.2012 02:56 14,3 C 71 % 1012,1 hPa 0,0 l/m 1,8 km/h (1 Bft) O-SO 112 9,1 C 14,3 C
20.05.2012 03:01 14,2 C 71 % 1012,2 hPa 0,0 l/m 1,1 km/h (1 Bft) O-SO 112 9,0 C 14,2 C
20.05.2012 03:06 14,2 C 70 % 1012,1 hPa 0,0 l/m 0,0 km/h (0 Bft) O 90 8,8 C 14,2 C
20.05.2012 03:11 14,2 C 70 % 1012,1 hPa 0,0 l/m 1,8 km/h (1 Bft) SO 135 8,8 C 14,2 C
20.05.2012 03:16 14,1 C 71 % 1012,0 hPa 0,0 l/m 2,2 km/h (1 Bft) O-SO 112 8,9 C 14,1 C
20.05.2012 03:21 14,1 C 71 % 1012,0 hPa 0,0 l/m 0,0 km/h (0 Bft) SO 135 8,9 C 14,1 C
20.05.2012 03:26 14,1 C 71 % 1012,1 hPa 0,0 l/m 0,0 km/h (0 Bft) O-SO 112 8,9 C 14,1 C
20.05.2012 03:31 13,9 C 71 % 1012,1 hPa 0,0 l/m 2,5 km/h (1 Bft) O 90 8,7 C 13,9 C
20.05.2012 03:36 13,8 C 70 % 1012,1 hPa 0,0 l/m 3,2 km/h (1 Bft) O 90 8,4 C 13,8 C
20.05.2012 03:41 13,7 C 71 % 1012,1 hPa 0,0 l/m 0,0 km/h (0 Bft) O 90 8,5 C 13,7 C
20.05.2012 03:46 13,6 C 71 % 1012,1 hPa 0,0 l/m 1,1 km/h (1 Bft) SO 135 8,4 C 13,6 C
20.05.2012 03:51 13,4 C 71 % 1012,0 hPa 0,0 l/m 3,6 km/h (1 Bft) O-SO 112 8,3 C 13,4 C
20.05.2012 03:56 13,3 C 71 % 1012,0 hPa 0,0 l/m 0,0 km/h (0 Bft) O-NO 67 8,2 C 13,3 C
20.05.2012 04:01 13,3 C 71 % 1012,0 hPa 0,0 l/m 3,2 km/h (1 Bft) O-NO 67 8,2 C 13,3 C
20.05.2012 04:06 13,3 C 71 % 1011,9 hPa 0,0 l/m 2,9 km/h (1 Bft) O-SO 112 8,2 C 13,3 C
20.05.2012 04:11 13,3 C 71 % 1012,0 hPa 0,0 l/m 7,6 km/h (2 Bft) O 90 8,2 C 13,3 C
20.05.2012 04:16 13,2 C 71 % 1012,0 hPa 0,0 l/m 2,2 km/h (1 Bft) O-NO 67 8,1 C 13,2 C
20.05.2012 04:21 13,1 C 71 % 1012,0 hPa 0,0 l/m 4,7 km/h (1 Bft) O-NO 67 8,0 C 13,1 C
20.05.2012 04:26 13,1 C 71 % 1012,0 hPa 0,0 l/m 3,2 km/h (1 Bft) O 90 8,0 C 13,1 C
20.05.2012 04:31 13,1 C 71 % 1012,0 hPa 0,0 l/m 4,3 km/h (1 Bft) O 90 8,0 C 13,1 C
20.05.2012 04:36 13,0 C 72 % 1012,0 hPa 0,0 l/m 4,0 km/h (1 Bft) O 90 8,1 C 13,0 C
20.05.2012 04:41 12,9 C 72 % 1011,9 hPa 0,0 l/m 4,3 km/h (1 Bft) O-NO 67 8,0 C 12,9 C
20.05.2012 04:46 12,9 C 72 % 1011,9 hPa 0,0 l/m 3,2 km/h (1 Bft) O 90 8,0 C 12,9 C
20.05.2012 04:51 12,8 C 72 % 1011,8 hPa 0,0 l/m 5,0 km/h (1 Bft) NO 45 7,9 C 12,8 C
20.05.2012 04:56 12,7 C 72 % 1011,8 hPa 0,0 l/m 3,2 km/h (1 Bft) O 90 7,8 C 12,7 C
20.05.2012 05:01 12,6 C 72 % 1011,7 hPa 0,0 l/m 8,6 km/h (2 Bft) O 90 7,7 C 12,6 C
20.05.2012 05:06 12,6 C 72 % 1011,6 hPa 0,0 l/m 6,1 km/h (2 Bft) O-NO 67 7,7 C 12,6 C
20.05.2012 05:11 12,5 C 73 % 1011,7 hPa 0,0 l/m 7,2 km/h (2 Bft) O 90 7,8 C 12,5 C
20.05.2012 05:16 12,4 C 73 % 1011,7 hPa 0,0 l/m 4,0 km/h (1 Bft) O-NO 67 7,7 C 12,4 C
20.05.2012 05:21 12,4 C 73 % 1011,6 hPa 0,0 l/m 9,0 km/h (2 Bft) O 90 7,7 C 12,4 C
20.05.2012 05:26 12,4 C 73 % 1011,6 hPa 0,0 l/m 9,4 km/h (2 Bft) O-SO 112 7,7 C 12,4 C
20.05.2012 05:31 12,3 C 73 % 1011,6 hPa 0,0 l/m 6,5 km/h (2 Bft) O-NO 67 7,6 C 12,3 C
20.05.2012 05:36 12,3 C 73 % 1011,6 hPa 0,0 l/m 4,3 km/h (1 Bft) O 90 7,6 C 12,3 C
20.05.2012 05:41 12,4 C 73 % 1011,6 hPa 0,0 l/m 6,5 km/h (2 Bft) O-NO 67 7,7 C 12,4 C
20.05.2012 05:46 12,5 C 73 % 1011,7 hPa 0,0 l/m 6,5 km/h (2 Bft) O 90 7,8 C 12,5 C
20.05.2012 05:51 12,8 C 73 % 1011,6 hPa 0,0 l/m 4,7 km/h (1 Bft) O-NO 67 8,1 C 12,8 C
20.05.2012 05:56 12,9 C 72 % 1011,7 hPa 0,0 l/m 6,1 km/h (2 Bft) O 90 8,0 C 12,9 C
20.05.2012 06:01 12,9 C 72 % 1011,7 hPa 0,0 l/m 6,5 km/h (2 Bft) O-SO 112 8,0 C 12,9 C
20.05.2012 06:06 13,0 C 72 % 1011,7 hPa 0,0 l/m 3,2 km/h (1 Bft) O 90 8,1 C 13,0 C
20.05.2012 06:11 13,2 C 72 % 1011,8 hPa 0,0 l/m 4,0 km/h (1 Bft) O 90 8,3 C 13,2 C
20.05.2012 06:16 13,4 C 71 % 1011,8 hPa 0,0 l/m 2,9 km/h (1 Bft) SO 135 8,3 C 13,4 C
20.05.2012 06:21 13,7 C 70 % 1011,7 hPa 0,0 l/m 0,0 km/h (0 Bft) SO 135 8,3 C 13,7 C
20.05.2012 06:26 13,9 C 70 % 1011,7 hPa 0,0 l/m 4,0 km/h (1 Bft) SO 135 8,5 C 13,9 C
20.05.2012 06:31 14,1 C 69 % 1011,7 hPa 0,0 l/m 4,3 km/h (1 Bft) SO 135 8,5 C 14,1 C
20.05.2012 06:36 14,2 C 69 % 1011,7 hPa 0,0 l/m 4,3 km/h (1 Bft) O 90 8,6 C 14,2 C
20.05.2012 06:41 14,3 C 69 % 1011,7 hPa 0,0 l/m 2,2 km/h (1 Bft) O-SO 112 8,7 C 14,3 C
20.05.2012 06:46 14,5 C 69 % 1011,7 hPa 0,0 l/m 4,3 km/h (1 Bft) O 90 8,9 C 14,5 C
20.05.2012 06:51 14,7 C 68 % 1011,7 hPa 0,0 l/m 3,2 km/h (1 Bft) O 90 8,9 C 14,7 C
20.05.2012 06:56 14,8 C 68 % 1011,7 hPa 0,0 l/m 6,5 km/h (2 Bft) O-SO 112 9,0 C 14,8 C
20.05.2012 07:01 14,9 C 69 % 1011,7 hPa 0,0 l/m 3,6 km/h (1 Bft) O-SO 112 9,3 C 14,9 C
20.05.2012 07:06 14,9 C 68 % 1011,6 hPa 0,0 l/m 2,5 km/h (1 Bft) O 90 9,0 C 14,9 C
20.05.2012 07:11 14,9 C 69 % 1011,7 hPa 0,0 l/m 8,6 km/h (2 Bft) O 90 9,3 C 14,9 C
20.05.2012 07:16 15,1 C 68 % 1011,7 hPa 0,0 l/m 3,6 km/h (1 Bft) O 90 9,2 C 15,1 C
20.05.2012 07:21 15,3 C 68 % 1011,6 hPa 0,0 l/m 2,5 km/h (1 Bft) O 90 9,4 C 15,3 C
20.05.2012 07:26 15,4 C 68 % 1011,7 hPa 0,0 l/m 5,4 km/h (1 Bft) O 90 9,5 C 15,4 C
20.05.2012 07:31 15,6 C 67 % 1011,7 hPa 0,0 l/m 9,4 km/h (2 Bft) O 90 9,5 C 15,6 C
20.05.2012 07:36 15,9 C 66 % 1011,7 hPa 0,0 l/m 8,3 km/h (2 Bft) O-NO 67 9,6 C 15,9 C
20.05.2012 07:41 15,9 C 66 % 1011,7 hPa 0,0 l/m 5,8 km/h (2 Bft) O-NO 67 9,6 C 15,9 C
20.05.2012 07:46 16,1 C 65 % 1011,7 hPa 0,0 l/m 7,2 km/h (2 Bft) O-SO 112 9,5 C 16,1 C
20.05.2012 07:51 16,2 C 65 % 1011,7 hPa 0,0 l/m 5,0 km/h (1 Bft) O 90 9,6 C 16,2 C
20.05.2012 07:56 16,3 C 65 % 1011,6 hPa 0,0 l/m 3,6 km/h (1 Bft) O 90 9,7 C 16,3 C
20.05.2012 08:01 16,4 C 64 % 1011,7 hPa 0,0 l/m 8,3 km/h (2 Bft) O 90 9,6 C 16,4 C
20.05.2012 08:06 16,4 C 64 % 1011,8 hPa 0,0 l/m 13,3 km/h (3 Bft) O 90 9,6 C 16,4 C
20.05.2012 08:11 16,5 C 64 % 1011,7 hPa 0,0 l/m 4,3 km/h (1 Bft) O-NO 67 9,7 C 16,5 C
20.05.2012 08:16 16,7 C 64 % 1011,7 hPa 0,0 l/m 7,2 km/h (2 Bft) O 90 9,9 C 16,7 C
20.05.2012 08:21 16,8 C 64 % 1011,7 hPa 0,0 l/m 4,3 km/h (1 Bft) O 90 10,0 C 16,8 C
20.05.2012 08:26 16,9 C 64 % 1011,7 hPa 0,0 l/m 6,8 km/h (2 Bft) O 90 10,0 C 16,9 C
20.05.2012 08:31 17,2 C 64 % 1011,6 hPa 0,0 l/m 2,9 km/h (1 Bft) O-NO 67 10,3 C 17,2 C
20.05.2012 08:36 17,4 C 64 % 1011,7 hPa 0,0 l/m 3,2 km/h (1 Bft) O-NO 67 10,5 C 17,4 C
20.05.2012 08:41 17,6 C 63 % 1011,6 hPa 0,0 l/m 9,4 km/h (2 Bft) O-SO 112 10,5 C 17,6 C
20.05.2012 08:46 17,8 C 63 % 1011,6 hPa 0,0 l/m 6,8 km/h (2 Bft) O-SO 112 10,7 C 17,8 C
20.05.2012 08:51 17,9 C 62 % 1011,6 hPa 0,0 l/m 7,9 km/h (2 Bft) O 90 10,5 C 17,9 C
20.05.2012 08:56 18,2 C 61 % 1011,7 hPa 0,0 l/m 6,1 km/h (2 Bft) SO 135 10,6 C 18,2 C
20.05.2012 09:01 18,4 C 61 % 1011,5 hPa 0,0 l/m 6,5 km/h (2 Bft) O 90 10,7 C 18,4 C
20.05.2012 09:06 18,6 C 60 % 1011,6 hPa 0,0 l/m 9,7 km/h (2 Bft) O 90 10,7 C 18,6 C
20.05.2012 09:11 18,8 C 60 % 1011,7 hPa 0,0 l/m 6,8 km/h (2 Bft) O-SO 112 10,9 C 18,8 C
20.05.2012 09:16 19,0 C 59 % 1011,6 hPa 0,0 l/m 5,8 km/h (2 Bft) O 90 10,8 C 19,0 C
20.05.2012 09:21 19,2 C 59 % 1011,7 hPa 0,0 l/m 4,7 km/h (1 Bft) S-SO 157 11,0 C 19,2 C
20.05.2012 09:26 19,4 C 58 % 1011,7 hPa 0,0 l/m 7,6 km/h (2 Bft) O 90 10,9 C 19,4 C
20.05.2012 09:31 19,6 C 58 % 1011,6 hPa 0,0 l/m 7,9 km/h (2 Bft) O-NO 67 11,1 C 19,6 C
20.05.2012 09:36 19,8 C 57 % 1011,5 hPa 0,0 l/m 5,8 km/h (2 Bft) O-SO 112 11,0 C 19,8 C
20.05.2012 09:41 19,9 C 57 % 1011,5 hPa 0,0 l/m 8,3 km/h (2 Bft) O 90 11,1 C 19,9 C
20.05.2012 09:46 20,1 C 56 % 1011,4 hPa 0,0 l/m 11,9 km/h (2 Bft) SO 135 11,0 C 20,1 C
20.05.2012 09:51 20,3 C 56 % 1011,4 hPa 0,0 l/m 11,2 km/h (2 Bft) O-NO 67 11,2 C 20,3 C
20.05.2012 09:56 20,5 C 55 % 1011,3 hPa 0,0 l/m 16,6 km/h (3 Bft) O-SO 112 11,1 C 20,5 C
20.05.2012 10:01 20,8 C 55 % 1011,3 hPa 0,0 l/m 9,0 km/h (2 Bft) O-SO 112 11,4 C 20,8 C
20.05.2012 10:06 20,9 C 54 % 1011,3 hPa 0,0 l/m 14,4 km/h (3 Bft) O 90 11,2 C 20,9 C
20.05.2012 10:11 21,1 C 53 % 1011,3 hPa 0,0 l/m 10,1 km/h (2 Bft) O 90 11,1 C 21,1 C
20.05.2012 10:16 21,4 C 53 % 1011,3 hPa 0,0 l/m 3,2 km/h (1 Bft) SO 135 11,4 C 21,4 C
20.05.2012 10:21 21,7 C 51 % 1011,1 hPa 0,0 l/m 8,3 km/h (2 Bft) O-SO 112 11,1 C 21,7 C
20.05.2012 10:26 21,8 C 50 % 1011,0 hPa 0,0 l/m 13,3 km/h (3 Bft) O-NO 67 10,9 C 21,8 C
20.05.2012 10:31 21,8 C 51 % 1010,9 hPa 0,0 l/m 9,4 km/h (2 Bft) O 90 11,2 C 21,8 C
20.05.2012 10:36 21,9 C 49 % 1010,9 hPa 0,0 l/m 9,0 km/h (2 Bft) SO 135 10,7 C 21,9 C
20.05.2012 10:41 22,2 C 49 % 1011,0 hPa 0,0 l/m 9,4 km/h (2 Bft) O 90 11,0 C 22,2 C
20.05.2012 10:46 22,4 C 49 % 1011,0 hPa 0,0 l/m 9,4 km/h (2 Bft) O-SO 112 11,2 C 22,4 C
20.05.2012 10:51 22,6 C 46 % 1010,8 hPa 0,0 l/m 10,8 km/h (2 Bft) O 90 10,4 C 22,6 C
20.05.2012 10:56 22,7 C 46 % 1011,0 hPa 0,0 l/m 5,0 km/h (1 Bft) S-SO 157 10,5 C 22,7 C
20.05.2012 11:01 22,9 C 46 % 1010,8 hPa 0,0 l/m 13,0 km/h (3 Bft) SO 135 10,7 C 22,9 C
20.05.2012 11:06 23,0 C 46 % 1010,8 hPa 0,0 l/m 12,2 km/h (2 Bft) O 90 10,7 C 23,0 C
20.05.2012 11:11 23,1 C 44 % 1010,9 hPa 0,0 l/m 11,2 km/h (2 Bft) O 90 10,2 C 23,1 C
20.05.2012 11:16 23,3 C 44 % 1010,7 hPa 0,0 l/m 6,5 km/h (2 Bft) O-SO 112 10,4 C 23,3 C
20.05.2012 11:21 23,4 C 44 % 1010,7 hPa 0,0 l/m 5,8 km/h (2 Bft) SO 135 10,4 C 23,4 C
20.05.2012 11:26 23,5 C 43 % 1010,7 hPa 0,0 l/m 10,4 km/h (2 Bft) O-NO 67 10,2 C 23,5 C
20.05.2012 11:31 23,7 C 42 % 1010,6 hPa 0,0 l/m 7,9 km/h (2 Bft) O-SO 112 10,0 C 23,7 C
20.05.2012 11:36 23,9 C 41 % 1010,6 hPa 0,0 l/m 9,4 km/h (2 Bft) SO 135 9,8 C 23,9 C
20.05.2012 11:41 24,2 C 40 % 1010,7 hPa 0,0 l/m 11,5 km/h (2 Bft) O-SO 112 9,7 C 24,2 C
20.05.2012 11:46 24,3 C 40 % 1010,5 hPa 0,0 l/m 5,8 km/h (2 Bft) SO 135 9,8 C 24,3 C
20.05.2012 11:51 24,3 C 39 % 1010,6 hPa 0,0 l/m 11,5 km/h (2 Bft) O-SO 112 9,4 C 24,3 C
20.05.2012 11:56 24,4 C 39 % 1010,5 hPa 0,0 l/m 23,0 km/h (4 Bft) SO 135 9,5 C 24,4 C
20.05.2012 12:01 24,4 C 38 % 1010,4 hPa 0,0 l/m 6,8 km/h (2 Bft) O 90 9,2 C 24,4 C
20.05.2012 12:06 24,6 C 38 % 1010,4 hPa 0,0 l/m 7,2 km/h (2 Bft) O-NO 67 9,3 C 24,6 C
20.05.2012 12:11 24,6 C 38 % 1010,3 hPa 0,0 l/m 8,6 km/h (2 Bft) O-SO 112 9,3 C 24,6 C
20.05.2012 12:16 24,8 C 37 % 1010,4 hPa 0,0 l/m 10,8 km/h (2 Bft) SO 135 9,1 C 24,8 C
20.05.2012 12:21 24,8 C 36 % 1010,3 hPa 0,0 l/m 11,2 km/h (2 Bft) SO 135 8,7 C 24,8 C
20.05.2012 12:26 24,9 C 37 % 1010,3 hPa 0,0 l/m 11,2 km/h (2 Bft) O-SO 112 9,2 C 24,9 C
20.05.2012 12:31 24,9 C 37 % 1010,2 hPa 0,0 l/m 17,6 km/h (3 Bft) O-SO 112 9,2 C 24,9 C
20.05.2012 12:36 24,9 C 36 % 1010,1 hPa 0,0 l/m 7,6 km/h (2 Bft) O-SO 112 8,8 C 24,9 C
20.05.2012 12:41 24,9 C 36 % 1010,0 hPa 0,0 l/m 21,2 km/h (4 Bft) O 90 8,8 C 24,9 C
20.05.2012 12:46 25,1 C 36 % 1010,1 hPa 0,0 l/m 12,2 km/h (2 Bft) O-SO 112 9,0 C 25,1 C
20.05.2012 12:51 25,2 C 35 % 1009,9 hPa 0,0 l/m 14,8 km/h (3 Bft) O 90 8,6 C 25,2 C
20.05.2012 12:56 25,3 C 36 % 1010,0 hPa 0,0 l/m 11,5 km/h (2 Bft) O 90 9,1 C 25,3 C
20.05.2012 13:01 25,5 C 35 % 1009,9 hPa 0,0 l/m 13,0 km/h (3 Bft) O-NO 67 8,9 C 25,5 C
20.05.2012 13:06 25,6 C 35 % 1010,1 hPa 0,0 l/m 7,9 km/h (2 Bft) S-SO 157 9,0 C 25,6 C
20.05.2012 13:11 25,8 C 34 % 1009,9 hPa 0,0 l/m 11,5 km/h (2 Bft) SO 135 8,7 C 25,8 C
20.05.2012 13:16 25,8 C 33 % 1009,9 hPa 0,0 l/m 10,1 km/h (2 Bft) O-SO 112 8,3 C 25,8 C
20.05.2012 13:21 25,9 C 33 % 1010,0 hPa 0,0 l/m 5,4 km/h (1 Bft) O 90 8,4 C 25,9 C
20.05.2012 13:26 25,9 C 33 % 1009,8 hPa 0,0 l/m 18,4 km/h (3 Bft) SO 135 8,4 C 25,9 C
20.05.2012 13:31 26,0 C 32 % 1009,9 hPa 0,0 l/m 10,8 km/h (2 Bft) O 90 8,0 C 26,0 C
20.05.2012 13:36 26,2 C 32 % 1009,8 hPa 0,0 l/m 8,3 km/h (2 Bft) O-SO 112 8,2 C 26,2 C
20.05.2012 13:41 26,3 C 31 % 1009,7 hPa 0,0 l/m 10,1 km/h (2 Bft) SO 135 7,8 C 26,3 C
20.05.2012 13:46 26,5 C 31 % 1009,7 hPa 0,0 l/m 6,8 km/h (2 Bft) O-NO 67 8,0 C 26,5 C
20.05.2012 13:51 26,5 C 31 % 1009,8 hPa 0,0 l/m 14,8 km/h (3 Bft) O 90 8,0 C 26,5 C
20.05.2012 13:56 26,4 C 30 % 1009,7 hPa 0,0 l/m 20,2 km/h (4 Bft) O-SO 112 7,4 C 26,4 C
20.05.2012 14:01 26,3 C 30 % 1009,6 hPa 0,0 l/m 15,8 km/h (3 Bft) SO 135 7,3 C 26,3 C
20.05.2012 14:06 26,4 C 31 % 1009,4 hPa 0,0 l/m 12,2 km/h (2 Bft) S-SO 157 7,9 C 26,4 C
20.05.2012 14:11 26,5 C 30 % 1009,5 hPa 0,0 l/m 8,3 km/h (2 Bft) O-SO 112 7,5 C 26,5 C
20.05.2012 14:16 26,5 C 30 % 1009,4 hPa 0,0 l/m 15,8 km/h (3 Bft) O 90 7,5 C 26,5 C
20.05.2012 14:21 26,8 C 30 % 1009,4 hPa 0,0 l/m 14,8 km/h (3 Bft) O-NO 67 7,8 C 26,8 C
20.05.2012 14:26 26,8 C 30 % 1009,4 hPa 0,0 l/m 11,9 km/h (2 Bft) SO 135 7,8 C 26,8 C
20.05.2012 14:31 26,8 C 30 % 1009,5 hPa 0,0 l/m 9,7 km/h (2 Bft) O 90 7,8 C 26,8 C
20.05.2012 14:36 26,8 C 30 % 1009,2 hPa 0,0 l/m 4,0 km/h (1 Bft) O 90 7,8 C 26,8 C
20.05.2012 14:41 26,8 C 30 % 1009,4 hPa 0,0 l/m 6,5 km/h (2 Bft) O-NO 67 7,8 C 26,8 C
20.05.2012 14:46 27,1 C 30 % 1009,3 hPa 0,0 l/m 14,4 km/h (3 Bft) SO 135 8,0 C 27,1 C
20.05.2012 14:51 27,3 C 29 % 1009,2 hPa 0,0 l/m 11,9 km/h (2 Bft) O 90 7,7 C 27,3 C
20.05.2012 14:56 27,3 C 30 % 1009,2 hPa 0,0 l/m 4,3 km/h (1 Bft) O-SO 112 8,2 C 27,3 C
20.05.2012 15:01 27,3 C 29 % 1009,2 hPa 0,0 l/m 7,6 km/h (2 Bft) O-NO 67 7,7 C 27,3 C
20.05.2012 15:06 27,2 C 29 % 1009,1 hPa 0,0 l/m 10,8 km/h (2 Bft) O-SO 112 7,6 C 27,2 C
20.05.2012 15:11 27,3 C 29 % 1009,1 hPa 0,0 l/m 10,1 km/h (2 Bft) O-SO 112 7,7 C 27,3 C
20.05.2012 15:16 27,3 C 30 % 1009,1 hPa 0,0 l/m 21,6 km/h (4 Bft) O-SO 112 8,2 C 27,3 C
20.05.2012 15:21 27,3 C 29 % 1009,0 hPa 0,0 l/m 13,7 km/h (3 Bft) O 90 7,7 C 27,3 C
20.05.2012 15:26 27,2 C 30 % 1008,8 hPa 0,0 l/m 22,0 km/h (4 Bft) O 90 8,1 C 27,2 C
20.05.2012 15:31 27,1 C 30 % 1008,7 hPa 0,0 l/m 9,0 km/h (2 Bft) O-NO 67 8,0 C 27,1 C
20.05.2012 15:36 27,1 C 30 % 1008,7 hPa 0,0 l/m 11,2 km/h (2 Bft) SO 135 8,0 C 27,1 C
20.05.2012 15:41 27,2 C 30 % 1008,8 hPa 0,0 l/m 12,2 km/h (2 Bft) O-NO 67 8,1 C 27,2 C
20.05.2012 15:46 27,3 C 30 % 1008,7 hPa 0,0 l/m 7,2 km/h (2 Bft) O-SO 112 8,2 C 27,3 C
20.05.2012 15:51 27,3 C 29 % 1008,6 hPa 0,0 l/m 11,2 km/h (2 Bft) O-SO 112 7,7 C 27,3 C
20.05.2012 15:56 27,4 C 30 % 1008,4 hPa 0,0 l/m 9,7 km/h (2 Bft) O-SO 112 8,3 C 27,4 C
20.05.2012 16:01 27,5 C 29 % 1008,4 hPa 0,0 l/m 9,4 km/h (2 Bft) O-NO 67 7,9 C 27,5 C
20.05.2012 16:06 27,4 C 29 % 1008,6 hPa 0,0 l/m 13,0 km/h (3 Bft) O 90 7,8 C 27,4 C
20.05.2012 16:11 27,3 C 29 % 1008,5 hPa 0,0 l/m 6,5 km/h (2 Bft) O-NO 67 7,7 C 27,3 C
20.05.2012 16:16 27,4 C 29 % 1008,4 hPa 0,0 l/m 14,8 km/h (3 Bft) O-SO 112 7,8 C 27,4 C
20.05.2012 16:21 27,4 C 29 % 1008,3 hPa 0,0 l/m 7,6 km/h (2 Bft) SO 135 7,8 C 27,4 C
20.05.2012 16:26 27,8 C 29 % 1008,2 hPa 0,0 l/m 9,0 km/h (2 Bft) O 90 8,1 C 27,8 C
20.05.2012 16:31 27,7 C 29 % 1008,4 hPa 0,0 l/m 9,4 km/h (2 Bft) S-SO 157 8,0 C 27,7 C
20.05.2012 16:36 27,7 C 29 % 1008,3 hPa 0,0 l/m 8,3 km/h (2 Bft) O-SO 112 8,0 C 27,7 C
20.05.2012 16:41 27,6 C 29 % 1008,4 hPa 0,0 l/m 4,7 km/h (1 Bft) O-SO 112 7,9 C 27,6 C
20.05.2012 16:46 27,6 C 29 % 1008,1 hPa 0,0 l/m 10,4 km/h (2 Bft) SO 135 7,9 C 27,6 C
20.05.2012 16:51 27,6 C 30 % 1008,0 hPa 0,0 l/m 9,0 km/h (2 Bft) O 90 8,4 C 27,6 C
20.05.2012 16:56 27,6 C 30 % 1008,0 hPa 0,0 l/m 10,8 km/h (2 Bft) O-SO 112 8,4 C 27,6 C
20.05.2012 17:01 27,6 C 30 % 1008,0 hPa 0,0 l/m 6,8 km/h (2 Bft) O-SO 112 8,4 C 27,6 C
20.05.2012 17:06 27,6 C 30 % 1008,1 hPa 0,0 l/m 8,3 km/h (2 Bft) SO 135 8,4 C 27,6 C
20.05.2012 17:11 27,6 C 30 % 1007,9 hPa 0,0 l/m 4,7 km/h (1 Bft) O 90 8,4 C 27,6 C
20.05.2012 17:16 27,8 C 30 % 1008,0 hPa 0,0 l/m 20,9 km/h (4 Bft) O-SO 112 8,6 C 27,8 C
20.05.2012 17:21 27,6 C 30 % 1008,0 hPa 0,0 l/m 5,4 km/h (1 Bft) O-SO 112 8,4 C 27,6 C
20.05.2012 17:26 27,7 C 30 % 1007,9 hPa 0,0 l/m 6,5 km/h (2 Bft) SO 135 8,5 C 27,7 C
20.05.2012 17:31 27,8 C 30 % 1007,9 hPa 0,0 l/m 4,0 km/h (1 Bft) O 90 8,6 C 27,8 C
20.05.2012 17:36 27,7 C 30 % 1008,0 hPa 0,0 l/m 5,8 km/h (2 Bft) SO 135 8,5 C 27,7 C
20.05.2012 17:41 27,6 C 29 % 1008,0 hPa 0,0 l/m 4,7 km/h (1 Bft) O 90 7,9 C 27,6 C
20.05.2012 17:46 27,6 C 30 % 1007,8 hPa 0,0 l/m 4,0 km/h (1 Bft) O-NO 67 8,4 C 27,6 C
20.05.2012 17:51 27,6 C 30 % 1007,7 hPa 0,0 l/m 13,0 km/h (3 Bft) O 90 8,4 C 27,6 C
20.05.2012 17:56 27,6 C 30 % 1007,8 hPa 0,0 l/m 8,3 km/h (2 Bft) O-NO 67 8,4 C 27,6 C
20.05.2012 18:01 27,5 C 31 % 1007,8 hPa 0,0 l/m 14,4 km/h (3 Bft) O-SO 112 8,8 C 27,5 C
20.05.2012 18:06 27,4 C 30 % 1007,6 hPa 0,0 l/m 16,6 km/h (3 Bft) O-SO 112 8,3 C 27,4 C
20.05.2012 18:11 27,4 C 31 % 1007,6 hPa 0,0 l/m 4,0 km/h (1 Bft) SO 135 8,8 C 27,4 C
20.05.2012 18:16 27,4 C 31 % 1007,7 hPa 0,0 l/m 4,0 km/h (1 Bft) SO 135 8,8 C 27,4 C
20.05.2012 18:21 27,4 C 31 % 1007,6 hPa 0,0 l/m 5,4 km/h (1 Bft) O-SO 112 8,8 C 27,4 C
20.05.2012 18:26 27,4 C 32 % 1007,6 hPa 0,0 l/m 6,8 km/h (2 Bft) O 90 9,2 C 27,4 C
20.05.2012 18:31 27,3 C 32 % 1007,5 hPa 0,0 l/m 13,0 km/h (3 Bft) O-NO 67 9,1 C 27,3 C
20.05.2012 18:36 27,2 C 32 % 1007,2 hPa 0,0 l/m 1,4 km/h (1 Bft) O-NO 67 9,1 C 27,2 C
20.05.2012 18:41 27,1 C 34 % 1007,2 hPa 0,0 l/m 7,2 km/h (2 Bft) NO 45 9,9 C 27,1 C
20.05.2012 18:46 27,1 C 34 % 1007,3 hPa 0,0 l/m 4,0 km/h (1 Bft) O-NO 67 9,9 C 27,1 C
20.05.2012 18:51 26,9 C 35 % 1007,1 hPa 0,0 l/m 7,6 km/h (2 Bft) O-NO 67 10,1 C 26,9 C
20.05.2012 18:56 26,9 C 35 % 1007,2 hPa 0,0 l/m 2,5 km/h (1 Bft) O-SO 112 10,1 C 26,9 C
20.05.2012 19:01 26,8 C 35 % 1007,2 hPa 0,0 l/m 6,5 km/h (2 Bft) SO 135 10,0 C 26,8 C
20.05.2012 19:06 26,6 C 36 % 1007,1 hPa 0,0 l/m 11,2 km/h (2 Bft) O-NO 67 10,3 C 26,6 C
20.05.2012 19:11 26,6 C 36 % 1007,0 hPa 0,0 l/m 4,7 km/h (1 Bft) O-NO 67 10,3 C 26,6 C
20.05.2012 19:16 26,4 C 36 % 1006,9 hPa 0,0 l/m 6,1 km/h (2 Bft) O 90 10,1 C 26,4 C
20.05.2012 19:21 26,4 C 36 % 1007,0 hPa 0,0 l/m 7,6 km/h (2 Bft) O-NO 67 10,1 C 26,4 C
20.05.2012 19:26 26,2 C 36 % 1007,0 hPa 0,0 l/m 6,1 km/h (2 Bft) O-NO 67 9,9 C 26,2 C
20.05.2012 19:31 26,1 C 36 % 1006,7 hPa 0,0 l/m 5,8 km/h (2 Bft) O 90 9,8 C 26,1 C
20.05.2012 19:36 25,9 C 36 % 1006,6 hPa 0,0 l/m 11,2 km/h (2 Bft) O 90 9,7 C 25,9 C
20.05.2012 19:41 25,9 C 37 % 1006,6 hPa 0,0 l/m 6,5 km/h (2 Bft) O 90 10,1 C 25,9 C
20.05.2012 19:46 25,6 C 37 % 1006,7 hPa 0,0 l/m 10,1 km/h (2 Bft) O-SO 112 9,8 C 25,6 C
20.05.2012 19:51 25,6 C 37 % 1006,6 hPa 0,0 l/m 10,1 km/h (2 Bft) O 90 9,8 C 25,6 C
20.05.2012 19:56 25,4 C 37 % 1006,7 hPa 0,0 l/m 8,3 km/h (2 Bft) O-NO 67 9,6 C 25,4 C
20.05.2012 20:01 25,3 C 37 % 1006,8 hPa 0,0 l/m 4,7 km/h (1 Bft) O-SO 112 9,6 C 25,3 C
20.05.2012 20:06 25,1 C 38 % 1006,6 hPa 0,0 l/m 2,5 km/h (1 Bft) O 90 9,8 C 25,1 C
20.05.2012 20:11 24,9 C 38 % 1006,7 hPa 0,0 l/m 3,6 km/h (1 Bft) O 90 9,6 C 24,9 C
20.05.2012 20:16 24,8 C 39 % 1006,7 hPa 0,0 l/m 2,9 km/h (1 Bft) O 90 9,9 C 24,8 C
20.05.2012 20:21 24,6 C 39 % 1006,8 hPa 0,0 l/m 4,7 km/h (1 Bft) O 90 9,7 C 24,6 C
20.05.2012 20:26 24,4 C 40 % 1006,8 hPa 0,0 l/m 4,0 km/h (1 Bft) O 90 9,9 C 24,4 C
20.05.2012 20:31 24,2 C 40 % 1006,9 hPa 0,0 l/m 1,4 km/h (1 Bft) O-NO 67 9,7 C 24,2 C
20.05.2012 20:36 23,9 C 41 % 1006,8 hPa 0,0 l/m 3,2 km/h (1 Bft) O-NO 67 9,8 C 23,9 C
20.05.2012 20:41 23,8 C 41 % 1006,8 hPa 0,0 l/m 0,0 km/h (0 Bft) O-NO 67 9,7 C 23,8 C
20.05.2012 20:46 23,6 C 41 % 1006,9 hPa 0,0 l/m 4,7 km/h (1 Bft) O 90 9,6 C 23,6 C
20.05.2012 20:51 23,5 C 41 % 1006,9 hPa 0,0 l/m 3,6 km/h (1 Bft) O-SO 112 9,5 C 23,5 C
20.05.2012 20:56 23,3 C 42 % 1006,9 hPa 0,0 l/m 3,2 km/h (1 Bft) O 90 9,7 C 23,3 C
20.05.2012 21:01 23,2 C 42 % 1007,1 hPa 0,0 l/m 4,0 km/h (1 Bft) O-NO 67 9,6 C 23,2 C
20.05.2012 21:06 23,0 C 42 % 1006,9 hPa 0,0 l/m 5,4 km/h (1 Bft) O-NO 67 9,4 C 23,0 C
20.05.2012 21:11 22,9 C 43 % 1007,0 hPa 0,0 l/m 0,0 km/h (0 Bft) NO 45 9,6 C 22,9 C
20.05.2012 21:16 22,7 C 43 % 1007,0 hPa 0,0 l/m 0,0 km/h (0 Bft) O 90 9,5 C 22,7 C
20.05.2012 21:21 22,5 C 43 % 1007,1 hPa 0,0 l/m 1,4 km/h (1 Bft) O-SO 112 9,3 C 22,5 C
20.05.2012 21:26 22,4 C 44 % 1007,1 hPa 0,0 l/m 0,0 km/h (0 Bft) O-SO 112 9,5 C 22,4 C
20.05.2012 21:31 22,3 C 44 % 1007,2 hPa 0,0 l/m 5,8 km/h (2 Bft) O 90 9,5 C 22,3 C
20.05.2012 21:36 22,1 C 44 % 1007,3 hPa 0,0 l/m 1,4 km/h (1 Bft) O 90 9,3 C 22,1 C
20.05.2012 21:41 21,9 C 45 % 1007,2 hPa 0,0 l/m 2,9 km/h (1 Bft) O 90 9,4 C 21,9 C
20.05.2012 21:46 21,8 C 45 % 1007,2 hPa 0,0 l/m 5,4 km/h (1 Bft) O 90 9,3 C 21,8 C
20.05.2012 21:51 21,7 C 45 % 1007,2 hPa 0,0 l/m 0,0 km/h (0 Bft) O-SO 112 9,2 C 21,7 C
20.05.2012 21:56 21,6 C 46 % 1007,3 hPa 0,0 l/m 3,2 km/h (1 Bft) O 90 9,5 C 21,6 C
20.05.2012 22:01 21,4 C 46 % 1007,3 hPa 0,0 l/m 4,7 km/h (1 Bft) O 90 9,3 C 21,4 C
20.05.2012 22:06 21,3 C 46 % 1007,3 hPa 0,0 l/m 2,2 km/h (1 Bft) O 90 9,2 C 21,3 C
20.05.2012 22:11 21,2 C 46 % 1007,2 hPa 0,0 l/m 3,6 km/h (1 Bft) O-NO 67 9,1 C 21,2 C
20.05.2012 22:16 21,2 C 47 % 1007,0 hPa 0,0 l/m 3,2 km/h (1 Bft) NO 45 9,4 C 21,2 C
20.05.2012 22:21 21,0 C 47 % 1007,1 hPa 0,0 l/m 1,4 km/h (1 Bft) O-NO 67 9,3 C 21,0 C
20.05.2012 22:26 20,9 C 47 % 1007,1 hPa 0,0 l/m 4,3 km/h (1 Bft) O-SO 112 9,2 C 20,9 C
20.05.2012 22:31 20,8 C 48 % 1007,0 hPa 0,0 l/m 2,5 km/h (1 Bft) O 90 9,4 C 20,8 C
20.05.2012 22:36 20,6 C 48 % 1007,1 hPa 0,0 l/m 2,5 km/h (1 Bft) O 90 9,2 C 20,6 C
20.05.2012 22:41 20,5 C 48 % 1007,2 hPa 0,0 l/m 0,0 km/h (0 Bft) O-SO 112 9,1 C 20,5 C
20.05.2012 22:46 20,4 C 48 % 1007,1 hPa 0,0 l/m 2,2 km/h (1 Bft) O-SO 112 9,0 C 20,4 C
20.05.2012 22:51 20,3 C 48 % 1007,3 hPa 0,0 l/m 1,8 km/h (1 Bft) O 90 8,9 C 20,3 C
20.05.2012 22:56 20,2 C 49 % 1007,2 hPa 0,0 l/m 2,5 km/h (1 Bft) O-NO 67 9,1 C 20,2 C
20.05.2012 23:01 20,1 C 49 % 1007,1 hPa 0,0 l/m 1,4 km/h (1 Bft) O-NO 67 9,0 C 20,1 C
20.05.2012 23:06 19,9 C 49 % 1007,1 hPa 0,0 l/m 3,2 km/h (1 Bft) O-NO 67 8,9 C 19,9 C
20.05.2012 23:11 19,9 C 49 % 1007,1 hPa 0,0 l/m 3,2 km/h (1 Bft) O-NO 67 8,9 C 19,9 C
20.05.2012 23:16 19,9 C 49 % 1007,1 hPa 0,0 l/m 1,4 km/h (1 Bft) O-NO 67 8,9 C 19,9 C
20.05.2012 23:21 19,9 C 49 % 1007,0 hPa 0,0 l/m 3,6 km/h (1 Bft) O-NO 67 8,9 C 19,9 C
20.05.2012 23:26 19,8 C 49 % 1006,9 hPa 0,0 l/m 5,0 km/h (1 Bft) O-NO 67 8,8 C 19,8 C
20.05.2012 23:31 19,8 C 49 % 1007,0 hPa 0,0 l/m 1,8 km/h (1 Bft) O-NO 67 8,8 C 19,8 C
20.05.2012 23:36 19,6 C 50 % 1006,9 hPa 0,0 l/m 1,4 km/h (1 Bft) O-NO 67 8,9 C 19,6 C
20.05.2012 23:41 19,6 C 50 % 1006,9 hPa 0,0 l/m 4,7 km/h (1 Bft) O 90 8,9 C 19,6 C
20.05.2012 23:46 19,5 C 50 % 1006,9 hPa 0,0 l/m 2,5 km/h (1 Bft) O 90 8,8 C 19,5 C
20.05.2012 23:51 19,4 C 51 % 1006,9 hPa 0,0 l/m 4,0 km/h (1 Bft) O-NO 67 9,0 C 19,4 C
20.05.2012 23:56 19,3 C 51 % 1006,8 hPa 0,0 l/m 9,4 km/h (2 Bft) O-NO 67 8,9 C 19,3 C
_ Min-Zeit 05:31 14:51 19:36 - 01:26 - - 14:01 05:31
Minimum _ 12,3 C 29 % 1006,6 hPa - 0,0 km/h (0 Bft) - - 7,3 C 12,3 C
_ Max-Zeit 16:26 05:11 00:06 00:01 11:56 - - 10:01 16:26
Maximum _ 27,8 C 73 % 1012,5 hPa 0,0 l/m 23,0 km/h
SO (4 Bft)
- - 11,4 C 27,8 C
Durchschnitt _ 20,8 C 50 % 1009,9 hPa #0,0 l/m 6,4 km/h (2 Bft) O - 9,2 C 20,8 C
(c) by David Heller